sensor_id;sensor_type;location;lat;lon;timestamp;P1;durP1;ratioP1;P2;durP2;ratioP2
23586;SDS011;11971;51.148;4.104;2023-09-19T00:02:21;146.77;;;39.58;;
23586;SDS011;11971;51.148;4.104;2023-09-19T00:04:48;140.95;;;39.10;;
23586;SDS011;11971;51.148;4.104;2023-09-19T00:07:15;148.85;;;39.90;;
23586;SDS011;11971;51.148;4.104;2023-09-19T00:09:42;146.63;;;39.60;;
23586;SDS011;11971;51.148;4.104;2023-09-19T00:12:09;143.77;;;38.92;;
23586;SDS011;11971;51.148;4.104;2023-09-19T00:14:38;145.73;;;39.20;;
23586;SDS011;11971;51.148;4.104;2023-09-19T00:17:05;146.18;;;39.60;;
23586;SDS011;11971;51.148;4.104;2023-09-19T00:19:36;145.63;;;39.33;;
23586;SDS011;11971;51.148;4.104;2023-09-19T00:22:03;145.60;;;39.57;;
23586;SDS011;11971;51.148;4.104;2023-09-19T00:24:29;143.50;;;39.25;;
23586;SDS011;11971;51.148;4.104;2023-09-19T00:26:56;144.30;;;39.38;;
23586;SDS011;11971;51.148;4.104;2023-09-19T00:29:24;142.98;;;39.75;;
23586;SDS011;11971;51.148;4.104;2023-09-19T00:31:54;144.70;;;39.10;;
23586;SDS011;11971;51.148;4.104;2023-09-19T00:34:21;145.68;;;39.95;;
23586;SDS011;11971;51.148;4.104;2023-09-19T00:36:50;144.52;;;39.28;;
23586;SDS011;11971;51.148;4.104;2023-09-19T00:39:18;148.05;;;39.58;;
23586;SDS011;11971;51.148;4.104;2023-09-19T00:41:45;147.80;;;39.30;;
23586;SDS011;11971;51.148;4.104;2023-09-19T00:44:12;145.55;;;38.85;;
23586;SDS011;11971;51.148;4.104;2023-09-19T00:46:40;144.05;;;39.08;;
23586;SDS011;11971;51.148;4.104;2023-09-19T00:49:07;143.55;;;39.40;;
23586;SDS011;11971;51.148;4.104;2023-09-19T00:51:36;144.07;;;39.55;;
23586;SDS011;11971;51.148;4.104;2023-09-19T00:54:04;142.07;;;39.25;;
23586;SDS011;11971;51.148;4.104;2023-09-19T00:56:31;145.05;;;39.83;;
23586;SDS011;11971;51.148;4.104;2023-09-19T00:58:58;142.15;;;39.47;;
23586;SDS011;11971;51.148;4.104;2023-09-19T01:01:25;139.95;;;39.00;;
23586;SDS011;11971;51.148;4.104;2023-09-19T01:03:55;146.57;;;39.15;;
23586;SDS011;11971;51.148;4.104;2023-09-19T01:06:22;145.15;;;38.75;;
23586;SDS011;11971;51.148;4.104;2023-09-19T01:08:49;142.38;;;38.58;;
23586;SDS011;11971;51.148;4.104;2023-09-19T01:11:19;144.77;;;38.72;;
23586;SDS011;11971;51.148;4.104;2023-09-19T01:13:56;148.05;;;39.30;;
23586;SDS011;11971;51.148;4.104;2023-09-19T01:16:30;144.60;;;39.05;;
23586;SDS011;11971;51.148;4.104;2023-09-19T01:19:01;150.05;;;39.28;;
23586;SDS011;11971;51.148;4.104;2023-09-19T01:21:37;143.38;;;39.08;;
23586;SDS011;11971;51.148;4.104;2023-09-19T01:24:22;141.18;;;39.08;;
23586;SDS011;11971;51.148;4.104;2023-09-19T01:27:15;146.82;;;39.42;;
23586;SDS011;11971;51.148;4.104;2023-09-19T01:29:48;144.10;;;39.35;;
23586;SDS011;11971;51.148;4.104;2023-09-19T01:32:17;142.85;;;38.78;;
23586;SDS011;11971;51.148;4.104;2023-09-19T01:34:47;151.90;;;39.33;;
23586;SDS011;11971;51.148;4.104;2023-09-19T01:37:15;147.40;;;39.45;;
23586;SDS011;11971;51.148;4.104;2023-09-19T01:39:45;149.18;;;39.72;;
23586;SDS011;11971;51.148;4.104;2023-09-19T01:42:18;144.52;;;39.45;;
23586;SDS011;11971;51.148;4.104;2023-09-19T01:44:51;143.80;;;39.55;;
23586;SDS011;11971;51.148;4.104;2023-09-19T01:47:26;148.15;;;39.22;;
23586;SDS011;11971;51.148;4.104;2023-09-19T01:50:05;149.55;;;39.47;;
23586;SDS011;11971;51.148;4.104;2023-09-19T01:52:38;150.25;;;39.53;;
23586;SDS011;11971;51.148;4.104;2023-09-19T01:55:13;142.40;;;39.10;;
23586;SDS011;11971;51.148;4.104;2023-09-19T01:57:44;145.60;;;39.47;;
23586;SDS011;11971;51.148;4.104;2023-09-19T02:00:16;145.82;;;39.17;;
23586;SDS011;11971;51.148;4.104;2023-09-19T02:02:46;144.53;;;39.40;;
23586;SDS011;11971;51.148;4.104;2023-09-19T02:05:13;143.18;;;39.42;;
23586;SDS011;11971;51.148;4.104;2023-09-19T02:07:48;149.68;;;39.42;;
23586;SDS011;11971;51.148;4.104;2023-09-19T02:10:15;140.55;;;38.63;;
23586;SDS011;11971;51.148;4.104;2023-09-19T02:12:43;145.40;;;38.92;;
23586;SDS011;11971;51.148;4.104;2023-09-19T02:15:10;146.02;;;39.40;;
23586;SDS011;11971;51.148;4.104;2023-09-19T02:17:36;145.88;;;38.78;;
23586;SDS011;11971;51.148;4.104;2023-09-19T02:20:05;145.95;;;39.08;;
23586;SDS011;11971;51.148;4.104;2023-09-19T02:22:35;143.30;;;39.13;;
23586;SDS011;11971;51.148;4.104;2023-09-19T02:25:02;142.90;;;38.75;;
23586;SDS011;11971;51.148;4.104;2023-09-19T02:27:29;144.85;;;39.10;;
23586;SDS011;11971;51.148;4.104;2023-09-19T02:29:56;144.02;;;39.35;;
23586;SDS011;11971;51.148;4.104;2023-09-19T02:32:23;149.07;;;39.58;;
23586;SDS011;11971;51.148;4.104;2023-09-19T02:34:50;143.98;;;39.03;;
23586;SDS011;11971;51.148;4.104;2023-09-19T02:37:18;144.98;;;39.53;;
23586;SDS011;11971;51.148;4.104;2023-09-19T02:39:45;147.25;;;39.10;;
23586;SDS011;11971;51.148;4.104;2023-09-19T02:42:12;143.82;;;39.47;;
23586;SDS011;11971;51.148;4.104;2023-09-19T02:44:39;139.55;;;39.10;;
23586;SDS011;11971;51.148;4.104;2023-09-19T02:47:05;146.27;;;39.38;;
23586;SDS011;11971;51.148;4.104;2023-09-19T02:49:32;154.52;;;39.70;;
23586;SDS011;11971;51.148;4.104;2023-09-19T02:52:00;148.73;;;39.47;;
23586;SDS011;11971;51.148;4.104;2023-09-19T02:54:29;149.70;;;39.17;;
23586;SDS011;11971;51.148;4.104;2023-09-19T02:56:56;147.10;;;39.03;;
23586;SDS011;11971;51.148;4.104;2023-09-19T02:59:24;151.38;;;39.25;;
23586;SDS011;11971;51.148;4.104;2023-09-19T03:01:51;149.43;;;38.95;;
23586;SDS011;11971;51.148;4.104;2023-09-19T03:04:19;142.38;;;38.97;;
23586;SDS011;11971;51.148;4.104;2023-09-19T03:06:46;148.98;;;39.33;;
23586;SDS011;11971;51.148;4.104;2023-09-19T03:09:14;146.95;;;39.60;;
23586;SDS011;11971;51.148;4.104;2023-09-19T03:11:42;150.60;;;39.58;;
23586;SDS011;11971;51.148;4.104;2023-09-19T03:14:11;147.38;;;39.67;;
23586;SDS011;11971;51.148;4.104;2023-09-19T03:16:39;144.18;;;39.33;;
23586;SDS011;11971;51.148;4.104;2023-09-19T03:19:07;144.18;;;39.72;;
23586;SDS011;11971;51.148;4.104;2023-09-19T03:21:35;151.18;;;40.15;;
23586;SDS011;11971;51.148;4.104;2023-09-19T03:24:02;147.00;;;39.20;;
23586;SDS011;11971;51.148;4.104;2023-09-19T03:26:30;146.60;;;39.13;;
23586;SDS011;11971;51.148;4.104;2023-09-19T03:28:58;150.57;;;39.38;;
23586;SDS011;11971;51.148;4.104;2023-09-19T03:31:25;147.97;;;39.37;;
23586;SDS011;11971;51.148;4.104;2023-09-19T03:33:52;146.55;;;39.33;;
23586;SDS011;11971;51.148;4.104;2023-09-19T03:36:18;146.20;;;39.22;;
23586;SDS011;11971;51.148;4.104;2023-09-19T03:38:45;150.48;;;39.70;;
23586;SDS011;11971;51.148;4.104;2023-09-19T03:41:12;150.02;;;39.47;;
23586;SDS011;11971;51.148;4.104;2023-09-19T03:43:39;143.65;;;38.92;;
23586;SDS011;11971;51.148;4.104;2023-09-19T03:46:07;145.57;;;38.92;;
23586;SDS011;11971;51.148;4.104;2023-09-19T03:48:34;151.82;;;39.22;;
23586;SDS011;11971;51.148;4.104;2023-09-19T03:51:01;146.77;;;39.42;;
23586;SDS011;11971;51.148;4.104;2023-09-19T03:53:27;148.85;;;39.25;;
23586;SDS011;11971;51.148;4.104;2023-09-19T03:55:54;149.30;;;39.33;;
23586;SDS011;11971;51.148;4.104;2023-09-19T03:58:22;144.50;;;38.90;;
23586;SDS011;11971;51.148;4.104;2023-09-19T04:00:49;145.65;;;39.25;;
23586;SDS011;11971;51.148;4.104;2023-09-19T04:03:17;147.82;;;39.22;;
23586;SDS011;11971;51.148;4.104;2023-09-19T04:05:45;149.27;;;39.90;;
23586;SDS011;11971;51.148;4.104;2023-09-19T04:08:13;145.10;;;39.58;;
23586;SDS011;11971;51.148;4.104;2023-09-19T04:10:41;140.52;;;39.08;;
23586;SDS011;11971;51.148;4.104;2023-09-19T04:13:08;147.23;;;39.30;;
23586;SDS011;11971;51.148;4.104;2023-09-19T04:15:35;146.15;;;38.97;;
23586;SDS011;11971;51.148;4.104;2023-09-19T04:18:02;155.48;;;39.63;;
23586;SDS011;11971;51.148;4.104;2023-09-19T04:20:31;145.05;;;39.22;;
23586;SDS011;11971;51.148;4.104;2023-09-19T04:22:58;144.20;;;39.78;;
23586;SDS011;11971;51.148;4.104;2023-09-19T04:25:25;144.88;;;39.10;;
23586;SDS011;11971;51.148;4.104;2023-09-19T04:27:52;145.32;;;38.90;;
23586;SDS011;11971;51.148;4.104;2023-09-19T04:30:19;145.40;;;39.53;;
23586;SDS011;11971;51.148;4.104;2023-09-19T04:32:46;159.30;;;39.67;;
23586;SDS011;11971;51.148;4.104;2023-09-19T04:35:15;147.10;;;39.45;;
23586;SDS011;11971;51.148;4.104;2023-09-19T04:37:50;145.35;;;39.67;;
23586;SDS011;11971;51.148;4.104;2023-09-19T04:40:17;151.20;;;39.55;;
23586;SDS011;11971;51.148;4.104;2023-09-19T04:42:44;148.95;;;39.63;;
23586;SDS011;11971;51.148;4.104;2023-09-19T04:45:11;144.88;;;39.60;;
23586;SDS011;11971;51.148;4.104;2023-09-19T04:47:38;152.05;;;39.60;;
23586;SDS011;11971;51.148;4.104;2023-09-19T04:50:06;153.00;;;39.75;;
23586;SDS011;11971;51.148;4.104;2023-09-19T04:52:39;150.18;;;39.20;;
23586;SDS011;11971;51.148;4.104;2023-09-19T04:55:10;150.48;;;39.63;;
23586;SDS011;11971;51.148;4.104;2023-09-19T04:57:42;143.32;;;39.33;;
23586;SDS011;11971;51.148;4.104;2023-09-19T05:00:11;157.93;;;39.63;;
23586;SDS011;11971;51.148;4.104;2023-09-19T05:02:40;146.75;;;39.58;;
23586;SDS011;11971;51.148;4.104;2023-09-19T05:05:07;147.38;;;39.42;;
23586;SDS011;11971;51.148;4.104;2023-09-19T05:07:35;146.20;;;39.80;;
23586;SDS011;11971;51.148;4.104;2023-09-19T05:10:02;147.68;;;39.47;;
23586;SDS011;11971;51.148;4.104;2023-09-19T05:12:32;157.90;;;39.85;;
23586;SDS011;11971;51.148;4.104;2023-09-19T05:15:00;146.15;;;39.85;;
23586;SDS011;11971;51.148;4.104;2023-09-19T05:17:27;152.57;;;39.85;;
23586;SDS011;11971;51.148;4.104;2023-09-19T05:19:54;146.95;;;39.47;;
23586;SDS011;11971;51.148;4.104;2023-09-19T05:22:22;156.63;;;39.97;;
23586;SDS011;11971;51.148;4.104;2023-09-19T05:24:49;145.18;;;39.25;;
23586;SDS011;11971;51.148;4.104;2023-09-19T05:27:18;146.23;;;39.15;;
23586;SDS011;11971;51.148;4.104;2023-09-19T05:29:48;142.05;;;38.85;;
23586;SDS011;11971;51.148;4.104;2023-09-19T05:32:16;153.23;;;39.72;;
23586;SDS011;11971;51.148;4.104;2023-09-19T05:34:44;155.55;;;40.10;;
23586;SDS011;11971;51.148;4.104;2023-09-19T05:37:12;147.93;;;39.83;;
23586;SDS011;11971;51.148;4.104;2023-09-19T05:39:42;145.88;;;38.90;;
23586;SDS011;11971;51.148;4.104;2023-09-19T05:42:09;144.90;;;39.80;;
23586;SDS011;11971;51.148;4.104;2023-09-19T05:44:36;144.52;;;39.17;;
23586;SDS011;11971;51.148;4.104;2023-09-19T05:47:04;146.68;;;39.95;;
23586;SDS011;11971;51.148;4.104;2023-09-19T05:49:34;145.57;;;39.50;;
23586;SDS011;11971;51.148;4.104;2023-09-19T05:52:03;147.80;;;39.45;;
23586;SDS011;11971;51.148;4.104;2023-09-19T05:56:58;144.27;;;39.67;;
23586;SDS011;11971;51.148;4.104;2023-09-19T05:59:25;151.45;;;39.97;;
23586;SDS011;11971;51.148;4.104;2023-09-19T06:01:52;146.63;;;39.72;;
23586;SDS011;11971;51.148;4.104;2023-09-19T06:04:20;150.95;;;40.30;;
23586;SDS011;11971;51.148;4.104;2023-09-19T06:06:49;153.85;;;40.13;;
23586;SDS011;11971;51.148;4.104;2023-09-19T06:09:16;147.38;;;39.67;;
23586;SDS011;11971;51.148;4.104;2023-09-19T06:11:44;149.20;;;40.00;;
23586;SDS011;11971;51.148;4.104;2023-09-19T06:14:11;153.00;;;40.35;;
23586;SDS011;11971;51.148;4.104;2023-09-19T06:16:39;147.13;;;39.92;;
23586;SDS011;11971;51.148;4.104;2023-09-19T06:19:07;152.50;;;40.40;;
23586;SDS011;11971;51.148;4.104;2023-09-19T06:21:35;145.55;;;39.38;;
23586;SDS011;11971;51.148;4.104;2023-09-19T06:24:02;142.23;;;39.45;;
23586;SDS011;11971;51.148;4.104;2023-09-19T06:26:31;149.25;;;39.80;;
23586;SDS011;11971;51.148;4.104;2023-09-19T06:28:58;150.23;;;40.03;;
23586;SDS011;11971;51.148;4.104;2023-09-19T06:31:25;152.40;;;40.13;;
23586;SDS011;11971;51.148;4.104;2023-09-19T06:33:52;151.13;;;40.35;;
23586;SDS011;11971;51.148;4.104;2023-09-19T06:36:19;151.32;;;40.13;;
23586;SDS011;11971;51.148;4.104;2023-09-19T06:38:47;146.00;;;39.53;;
23586;SDS011;11971;51.148;4.104;2023-09-19T06:41:16;144.45;;;39.53;;
23586;SDS011;11971;51.148;4.104;2023-09-19T06:43:43;146.02;;;39.85;;
23586;SDS011;11971;51.148;4.104;2023-09-19T06:46:10;145.27;;;39.47;;
23586;SDS011;11971;51.148;4.104;2023-09-19T06:48:37;145.00;;;39.70;;
23586;SDS011;11971;51.148;4.104;2023-09-19T06:51:04;149.63;;;39.80;;
23586;SDS011;11971;51.148;4.104;2023-09-19T06:53:31;152.02;;;40.08;;
23586;SDS011;11971;51.148;4.104;2023-09-19T06:56:01;149.27;;;40.17;;
23586;SDS011;11971;51.148;4.104;2023-09-19T06:58:28;147.05;;;40.22;;
23586;SDS011;11971;51.148;4.104;2023-09-19T07:00:56;145.73;;;39.80;;
23586;SDS011;11971;51.148;4.104;2023-09-19T07:03:23;147.05;;;39.67;;
23586;SDS011;11971;51.148;4.104;2023-09-19T07:05:51;147.93;;;39.80;;
23586;SDS011;11971;51.148;4.104;2023-09-19T07:08:21;146.50;;;39.92;;
23586;SDS011;11971;51.148;4.104;2023-09-19T07:10:47;147.93;;;39.70;;
23586;SDS011;11971;51.148;4.104;2023-09-19T07:13:16;146.80;;;39.70;;
23586;SDS011;11971;51.148;4.104;2023-09-19T07:15:43;147.60;;;40.37;;
23586;SDS011;11971;51.148;4.104;2023-09-19T07:18:12;147.20;;;40.17;;
23586;SDS011;11971;51.148;4.104;2023-09-19T07:20:39;151.07;;;39.95;;
23586;SDS011;11971;51.148;4.104;2023-09-19T07:23:10;147.60;;;40.10;;
23586;SDS011;11971;51.148;4.104;2023-09-19T07:25:39;147.10;;;40.35;;
23586;SDS011;11971;51.148;4.104;2023-09-19T07:28:06;147.80;;;39.97;;
23586;SDS011;11971;51.148;4.104;2023-09-19T07:30:35;146.70;;;40.25;;
23586;SDS011;11971;51.148;4.104;2023-09-19T07:33:02;154.55;;;39.78;;
23586;SDS011;11971;51.148;4.104;2023-09-19T07:35:30;157.40;;;40.60;;
23586;SDS011;11971;51.148;4.104;2023-09-19T07:37:57;145.98;;;40.45;;
23586;SDS011;11971;51.148;4.104;2023-09-19T07:40:26;145.20;;;40.08;;
23586;SDS011;11971;51.148;4.104;2023-09-19T07:42:54;149.60;;;40.22;;
23586;SDS011;11971;51.148;4.104;2023-09-19T07:45:21;147.75;;;40.17;;
23586;SDS011;11971;51.148;4.104;2023-09-19T07:47:51;144.90;;;40.03;;
23586;SDS011;11971;51.148;4.104;2023-09-19T07:50:18;147.95;;;40.08;;
23586;SDS011;11971;51.148;4.104;2023-09-19T07:52:46;152.13;;;40.50;;
23586;SDS011;11971;51.148;4.104;2023-09-19T07:55:13;147.32;;;40.47;;
23586;SDS011;11971;51.148;4.104;2023-09-19T07:57:41;145.93;;;40.53;;
23586;SDS011;11971;51.148;4.104;2023-09-19T08:00:09;151.23;;;41.15;;
23586;SDS011;11971;51.148;4.104;2023-09-19T08:02:37;149.00;;;40.53;;
23586;SDS011;11971;51.148;4.104;2023-09-19T08:05:06;149.55;;;40.75;;
23586;SDS011;11971;51.148;4.104;2023-09-19T08:07:35;152.88;;;40.65;;
23586;SDS011;11971;51.148;4.104;2023-09-19T08:10:02;146.40;;;40.65;;
23586;SDS011;11971;51.148;4.104;2023-09-19T08:12:29;147.63;;;40.55;;
23586;SDS011;11971;51.148;4.104;2023-09-19T08:14:57;149.40;;;40.20;;
23586;SDS011;11971;51.148;4.104;2023-09-19T08:17:24;148.48;;;40.63;;
23586;SDS011;11971;51.148;4.104;2023-09-19T08:19:51;152.10;;;40.67;;
23586;SDS011;11971;51.148;4.104;2023-09-19T08:22:20;152.07;;;40.90;;
23586;SDS011;11971;51.148;4.104;2023-09-19T08:24:49;146.93;;;40.80;;
23586;SDS011;11971;51.148;4.104;2023-09-19T08:27:24;151.43;;;40.88;;
23586;SDS011;11971;51.148;4.104;2023-09-19T08:29:52;150.35;;;40.60;;
23586;SDS011;11971;51.148;4.104;2023-09-19T08:32:20;149.82;;;40.63;;
23586;SDS011;11971;51.148;4.104;2023-09-19T08:34:49;153.55;;;41.25;;
23586;SDS011;11971;51.148;4.104;2023-09-19T08:39:53;149.90;;;40.17;;
23586;SDS011;11971;51.148;4.104;2023-09-19T08:42:19;153.75;;;41.45;;
23586;SDS011;11971;51.148;4.104;2023-09-19T08:44:50;153.63;;;41.72;;
23586;SDS011;11971;51.148;4.104;2023-09-19T08:47:23;149.02;;;40.95;;
23586;SDS011;11971;51.148;4.104;2023-09-19T08:49:58;147.02;;;40.58;;
23586;SDS011;11971;51.148;4.104;2023-09-19T08:52:32;151.77;;;41.00;;
23586;SDS011;11971;51.148;4.104;2023-09-19T08:55:01;158.73;;;41.20;;
23586;SDS011;11971;51.148;4.104;2023-09-19T08:57:29;147.43;;;40.75;;
23586;SDS011;11971;51.148;4.104;2023-09-19T09:00:00;150.30;;;40.75;;
23586;SDS011;11971;51.148;4.104;2023-09-19T09:02:30;158.57;;;41.17;;
23586;SDS011;11971;51.148;4.104;2023-09-19T09:04:59;148.15;;;40.97;;
23586;SDS011;11971;51.148;4.104;2023-09-19T09:07:26;152.07;;;41.53;;
23586;SDS011;11971;51.148;4.104;2023-09-19T09:09:55;151.85;;;41.10;;
23586;SDS011;11971;51.148;4.104;2023-09-19T09:12:21;150.68;;;41.15;;
23586;SDS011;11971;51.148;4.104;2023-09-19T09:14:50;157.15;;;41.72;;
23586;SDS011;11971;51.148;4.104;2023-09-19T09:17:17;150.55;;;41.13;;
23586;SDS011;11971;51.148;4.104;2023-09-19T09:19:45;154.52;;;41.25;;
23586;SDS011;11971;51.148;4.104;2023-09-19T09:22:12;151.57;;;40.75;;
23586;SDS011;11971;51.148;4.104;2023-09-19T09:24:50;149.98;;;41.00;;
23586;SDS011;11971;51.148;4.104;2023-09-19T09:27:20;148.00;;;40.60;;
23586;SDS011;11971;51.148;4.104;2023-09-19T09:29:49;148.68;;;40.58;;
23586;SDS011;11971;51.148;4.104;2023-09-19T09:32:21;152.07;;;40.60;;
23586;SDS011;11971;51.148;4.104;2023-09-19T09:34:49;149.82;;;41.03;;
23586;SDS011;11971;51.148;4.104;2023-09-19T09:37:18;152.07;;;40.92;;
23586;SDS011;11971;51.148;4.104;2023-09-19T09:39:49;155.75;;;41.10;;
23586;SDS011;11971;51.148;4.104;2023-09-19T09:42:33;153.05;;;41.35;;
23586;SDS011;11971;51.148;4.104;2023-09-19T09:45:14;150.60;;;41.28;;
23586;SDS011;11971;51.148;4.104;2023-09-19T09:47:42;150.90;;;41.05;;
23586;SDS011;11971;51.148;4.104;2023-09-19T09:50:23;151.27;;;41.03;;
23586;SDS011;11971;51.148;4.104;2023-09-19T09:53:03;146.93;;;40.83;;
23586;SDS011;11971;51.148;4.104;2023-09-19T09:58:24;147.48;;;40.83;;
23586;SDS011;11971;51.148;4.104;2023-09-19T10:00:54;150.27;;;40.75;;
23586;SDS011;11971;51.148;4.104;2023-09-19T10:03:30;147.18;;;40.58;;
23586;SDS011;11971;51.148;4.104;2023-09-19T10:05:59;153.80;;;41.53;;
23586;SDS011;11971;51.148;4.104;2023-09-19T10:08:34;156.15;;;41.13;;
23586;SDS011;11971;51.148;4.104;2023-09-19T10:11:09;152.32;;;40.85;;
23586;SDS011;11971;51.148;4.104;2023-09-19T10:13:43;150.82;;;41.55;;
23586;SDS011;11971;51.148;4.104;2023-09-19T10:16:12;152.43;;;41.38;;
23586;SDS011;11971;51.148;4.104;2023-09-19T10:18:40;152.38;;;41.15;;
23586;SDS011;11971;51.148;4.104;2023-09-19T10:21:08;154.82;;;41.97;;
23586;SDS011;11971;51.148;4.104;2023-09-19T10:23:36;149.60;;;41.05;;
23586;SDS011;11971;51.148;4.104;2023-09-19T10:26:03;148.85;;;41.17;;
23586;SDS011;11971;51.148;4.104;2023-09-19T10:28:31;162.38;;;42.33;;
23586;SDS011;11971;51.148;4.104;2023-09-19T10:31:00;155.00;;;41.70;;
23586;SDS011;11971;51.148;4.104;2023-09-19T10:33:27;150.57;;;41.63;;
23586;SDS011;11971;51.148;4.104;2023-09-19T10:36:02;154.93;;;41.25;;
23586;SDS011;11971;51.148;4.104;2023-09-19T10:38:31;148.90;;;41.25;;
23586;SDS011;11971;51.148;4.104;2023-09-19T10:41:00;156.48;;;41.45;;
23586;SDS011;11971;51.148;4.104;2023-09-19T10:43:29;150.75;;;41.42;;
23586;SDS011;11971;51.148;4.104;2023-09-19T10:45:58;154.80;;;41.70;;
23586;SDS011;11971;51.148;4.104;2023-09-19T10:48:31;153.50;;;41.55;;
23586;SDS011;11971;51.148;4.104;2023-09-19T10:51:01;154.48;;;41.60;;
23586;SDS011;11971;51.148;4.104;2023-09-19T10:53:39;152.75;;;41.78;;
23586;SDS011;11971;51.148;4.104;2023-09-19T10:56:09;154.68;;;41.60;;
23586;SDS011;11971;51.148;4.104;2023-09-19T10:58:42;157.65;;;42.30;;
23586;SDS011;11971;51.148;4.104;2023-09-19T11:01:12;151.60;;;41.65;;
23586;SDS011;11971;51.148;4.104;2023-09-19T11:03:40;150.75;;;41.35;;
23586;SDS011;11971;51.148;4.104;2023-09-19T11:09:00;156.50;;;41.47;;
23586;SDS011;11971;51.148;4.104;2023-09-19T11:11:42;151.27;;;41.67;;
23586;SDS011;11971;51.148;4.104;2023-09-19T11:20:18;150.02;;;41.33;;
23586;SDS011;11971;51.148;4.104;2023-09-19T11:23:17;149.30;;;41.65;;
23586;SDS011;11971;51.148;4.104;2023-09-19T11:25:48;153.50;;;41.92;;
23586;SDS011;11971;51.148;4.104;2023-09-19T11:28:29;150.75;;;41.40;;
23586;SDS011;11971;51.148;4.104;2023-09-19T11:30:57;148.45;;;41.30;;
23586;SDS011;11971;51.148;4.104;2023-09-19T11:33:26;149.90;;;41.33;;
23586;SDS011;11971;51.148;4.104;2023-09-19T11:35:58;153.90;;;41.88;;
23586;SDS011;11971;51.148;4.104;2023-09-19T11:46:59;150.35;;;41.20;;
23586;SDS011;11971;51.148;4.104;2023-09-19T11:49:30;148.68;;;41.35;;
23586;SDS011;11971;51.148;4.104;2023-09-19T11:51:58;152.07;;;42.42;;
23586;SDS011;11971;51.148;4.104;2023-09-19T11:54:26;153.43;;;41.20;;
23586;SDS011;11971;51.148;4.104;2023-09-19T11:56:56;151.00;;;41.65;;
23586;SDS011;11971;51.148;4.104;2023-09-19T11:59:24;148.70;;;42.22;;
23586;SDS011;11971;51.148;4.104;2023-09-19T12:01:53;152.35;;;42.47;;
23586;SDS011;11971;51.148;4.104;2023-09-19T12:04:32;152.40;;;41.72;;
23586;SDS011;11971;51.148;4.104;2023-09-19T12:07:00;150.57;;;41.40;;
23586;SDS011;11971;51.148;4.104;2023-09-19T12:09:27;152.25;;;41.90;;
23586;SDS011;11971;51.148;4.104;2023-09-19T12:11:54;152.75;;;42.70;;
23586;SDS011;11971;51.148;4.104;2023-09-19T12:14:22;151.68;;;41.97;;
23586;SDS011;11971;51.148;4.104;2023-09-19T12:16:51;151.00;;;41.67;;
23586;SDS011;11971;51.148;4.104;2023-09-19T12:19:20;155.98;;;42.78;;
23586;SDS011;11971;51.148;4.104;2023-09-19T12:21:56;149.70;;;42.65;;
23586;SDS011;11971;51.148;4.104;2023-09-19T12:24:24;149.70;;;42.17;;
23586;SDS011;11971;51.148;4.104;2023-09-19T12:26:54;151.73;;;41.65;;
23586;SDS011;11971;51.148;4.104;2023-09-19T12:29:26;153.30;;;41.20;;
23586;SDS011;11971;51.148;4.104;2023-09-19T12:31:55;157.75;;;42.45;;
23586;SDS011;11971;51.148;4.104;2023-09-19T12:34:23;149.20;;;42.10;;
23586;SDS011;11971;51.148;4.104;2023-09-19T12:37:06;148.82;;;41.78;;
23586;SDS011;11971;51.148;4.104;2023-09-19T12:39:40;151.95;;;42.70;;
23586;SDS011;11971;51.148;4.104;2023-09-19T12:42:09;150.77;;;42.08;;
23586;SDS011;11971;51.148;4.104;2023-09-19T12:44:40;150.02;;;41.92;;
23586;SDS011;11971;51.148;4.104;2023-09-19T12:47:09;150.98;;;42.28;;
23586;SDS011;11971;51.148;4.104;2023-09-19T12:52:41;151.73;;;42.80;;
23586;SDS011;11971;51.148;4.104;2023-09-19T12:55:19;153.15;;;42.25;;
23586;SDS011;11971;51.148;4.104;2023-09-19T12:58:00;155.02;;;42.17;;
23586;SDS011;11971;51.148;4.104;2023-09-19T13:00:36;154.10;;;42.70;;
23586;SDS011;11971;51.148;4.104;2023-09-19T13:03:09;159.05;;;42.42;;
23586;SDS011;11971;51.148;4.104;2023-09-19T13:05:47;150.38;;;42.22;;
23586;SDS011;11971;51.148;4.104;2023-09-19T13:11:06;150.63;;;42.28;;
23586;SDS011;11971;51.148;4.104;2023-09-19T13:13:39;153.07;;;43.13;;
23586;SDS011;11971;51.148;4.104;2023-09-19T13:16:09;156.07;;;42.35;;
23586;SDS011;11971;51.148;4.104;2023-09-19T13:18:42;154.73;;;41.95;;
23586;SDS011;11971;51.148;4.104;2023-09-19T13:21:12;151.38;;;41.30;;
23586;SDS011;11971;51.148;4.104;2023-09-19T13:23:53;151.75;;;41.75;;
23586;SDS011;11971;51.148;4.104;2023-09-19T13:26:24;152.48;;;42.22;;
23586;SDS011;11971;51.148;4.104;2023-09-19T13:28:50;151.15;;;42.20;;
23586;SDS011;11971;51.148;4.104;2023-09-19T13:31:17;152.75;;;42.05;;
23586;SDS011;11971;51.148;4.104;2023-09-19T13:33:44;150.63;;;42.15;;
23586;SDS011;11971;51.148;4.104;2023-09-19T13:36:12;153.77;;;43.22;;
23586;SDS011;11971;51.148;4.104;2023-09-19T13:38:39;160.27;;;42.42;;
23586;SDS011;11971;51.148;4.104;2023-09-19T13:41:09;153.85;;;42.63;;
23586;SDS011;11971;51.148;4.104;2023-09-19T13:43:36;153.38;;;42.65;;
23586;SDS011;11971;51.148;4.104;2023-09-19T13:46:03;151.23;;;41.70;;
23586;SDS011;11971;51.148;4.104;2023-09-19T13:48:32;153.70;;;42.20;;
23586;SDS011;11971;51.148;4.104;2023-09-19T13:51:01;152.18;;;42.15;;
23586;SDS011;11971;51.148;4.104;2023-09-19T13:53:29;152.27;;;42.22;;
23586;SDS011;11971;51.148;4.104;2023-09-19T13:55:56;150.80;;;41.93;;
23586;SDS011;11971;51.148;4.104;2023-09-19T13:58:24;156.70;;;42.80;;
23586;SDS011;11971;51.148;4.104;2023-09-19T14:03:20;151.80;;;42.03;;
23586;SDS011;11971;51.148;4.104;2023-09-19T14:05:47;153.85;;;42.83;;
23586;SDS011;11971;51.148;4.104;2023-09-19T14:10:43;152.70;;;42.35;;
23586;SDS011;11971;51.148;4.104;2023-09-19T14:13:10;156.25;;;42.28;;
23586;SDS011;11971;51.148;4.104;2023-09-19T14:15:39;151.35;;;41.92;;
23586;SDS011;11971;51.148;4.104;2023-09-19T14:18:07;153.75;;;42.28;;
23586;SDS011;11971;51.148;4.104;2023-09-19T14:20:37;155.77;;;42.35;;
23586;SDS011;11971;51.148;4.104;2023-09-19T14:23:05;151.35;;;41.85;;
23586;SDS011;11971;51.148;4.104;2023-09-19T14:25:33;156.23;;;42.22;;
23586;SDS011;11971;51.148;4.104;2023-09-19T14:28:00;153.88;;;41.83;;
23586;SDS011;11971;51.148;4.104;2023-09-19T14:30:27;153.57;;;42.25;;
23586;SDS011;11971;51.148;4.104;2023-09-19T14:32:55;153.00;;;42.20;;
23586;SDS011;11971;51.148;4.104;2023-09-19T14:35:23;155.30;;;42.05;;
23586;SDS011;11971;51.148;4.104;2023-09-19T14:37:49;153.60;;;42.25;;
23586;SDS011;11971;51.148;4.104;2023-09-19T14:40:16;155.20;;;42.42;;
23586;SDS011;11971;51.148;4.104;2023-09-19T14:42:43;152.55;;;42.13;;
23586;SDS011;11971;51.148;4.104;2023-09-19T14:45:10;154.07;;;42.60;;
23586;SDS011;11971;51.148;4.104;2023-09-19T14:47:39;154.18;;;41.95;;
23586;SDS011;11971;51.148;4.104;2023-09-19T14:50:08;153.77;;;42.35;;
23586;SDS011;11971;51.148;4.104;2023-09-19T14:52:37;151.45;;;42.30;;
23586;SDS011;11971;51.148;4.104;2023-09-19T14:55:05;153.75;;;41.80;;
23586;SDS011;11971;51.148;4.104;2023-09-19T14:57:34;153.45;;;42.00;;